Ortega (1243) Station Data

Red Flag Warning: No
Fire Weather Zone: 242
SDGE Region: Orange County
Lat/Lon: 33.57/-117.513

Observations

Time Wind Speed/Gust Temp(F) RH Fuel Moist Fuel Temp(F) Dewpt(F) Tmax(F) Tmin(F) Accum Precip 10-min Precip SL Press(mb)
4/26 2:40am 32 4 G 6 55° 66% - - 44° 56° 52.3° - - 1015.0
4/26 2:30am 56 3 G 6 54° 67% - - 43° 56° 52.3° - - 1016.0
4/26 2:20am 53 6 G 8 54° 64% - - 42° 56° 52.3° - - 1016.0
4/26 2:10am 47 6 G 8 55° 59% - - 41° 56° 52.3° - - 1016.0
4/26 2:00am 48 6 G 8 54° 62% - - 41° 56° 52.3° - - 1016.0
4/26 1:50am 52 6 G 8 55° 62% - - 42° 56° 52.3° - - 1016.0
4/26 1:40am 48 6 G 7 54° 64% - - 43° 56° 52.3° - - 1016.0
4/26 1:30am 49 5 G 8 55° 62% - - 43° 56° 52.3° - - 1016.0
4/26 1:20am 46 4 G 5 55° 64% - - 43° 56° 52.3° - - 1016.0
4/26 1:10am 48 5 G 9 53° 67% - - 42° 55.5° 52.3° - - 1016.0
4/26 1:00am 53 6 G 8 54° 67% - - 43° 55.5° 52.5° - - 1016.0
4/26 12:50am 45 6 G 8 54° 66% - - 42° 55.5° 53.4° - - 1017.0
4/26 12:40am 52 4 G 9 55° 64% - - 43° 55.5° 53.5° - - 1017.0
4/26 12:30am 48 4 G 6 55° 62% - - 42° 55.3° 53.5° - - 1017.0
4/26 12:20am 47 5 G 8 54° 63% - - 42° 55.3° 53.5° - - 1017.0
4/26 12:10am 49 3 G 7 55° 65% - - 43° 55.3° 54.5° - - 1017.0
4/26 12:00am 40 4 G 7 55° 65% - - 43° 68.6° 54° - - 1017.0
4/25 11:50pm 47 1 G 4 55° 68% - - 45° 68.6° 54° - - 1017.0
4/25 11:40pm 347 1 G 3 55° 66% - - 44° 68.6° 54° - - 1017.0
4/25 11:30pm 337 1 G 3 55° 70% - - 45° 68.6° 54° - - 1017.0
4/25 11:20pm 31 2 G 5 54° 67% - - 43° 68.6° 54° - - 1017.0
4/25 11:10pm 37 4 G 6 55° 68% - - 45° 68.6° 54.7° - - 1017.0
4/25 11:00pm 53 4 G 6 55° 68% - - 45° 68.6° 54.7° - - 1017.0
4/25 10:50pm 65 1 G 3 55° 65% - - 44° 68.6° 54.7° - - 1017.0
4/25 10:40pm 71 2 G 4 55° 64% - - 43° 68.6° 54.7° - - 1017.0
4/25 10:30pm 11 1 G 2 56° 64% - - 44° 68.6° 54.8° - - 1017.0
4/25 10:20pm 258 0 G 2 56° 64% - - 44° 68.6° 54.8° - - 1017.0
4/25 10:10pm 41 3 G 4 56° 65% - - 44° 68.6° 54.8° - - 1017.0
4/25 10:00pm 50 4 G 5 55° 65% - - 44° 68.6° 54.8° - - 1017.0
4/25 9:50pm 71 2 G 4 56° 65% - - 44° 68.6° 54.9° - - 1017.0
4/25 9:40pm 157 1 G 3 56° 64% - - 44° 68.6° 54.9° - - 1017.0
4/25 9:30pm 262 2 G 3 57° 62% - - 44° 68.6° 54.9° - - 1016.0
4/25 9:20pm 44 2 G 4 57° 61% - - 44° 68.6° 54.9° - - 1016.0
4/25 9:10pm 72 2 G 2 57° 61% - - 44° 68.6° 54.9° - - 1016.0
4/25 9:00pm 137 1 G 2 58° 57% - - 43° 68.6° 54.9° - - 1016.0
4/25 8:50pm 128 1 G 2 58° 54% - - 42° 68.6° 54.9° - - 1016.0
4/25 8:40pm 78 3 G 6 59° 53% - - 42° 68.6° 54.9° - - 1016.0
4/25 8:30pm 45 4 G 6 58° 54% - - 42° 68.6° 54.9° - - 1016.0
4/25 8:20pm 53 4 G 5 59° 53% - - 42° 68.6° 54.9° - - 1016.0
4/25 8:10pm 53 4 G 6 59° 53% - - 42° 68.6° 54.9° - - 1016.0
4/25 8:00pm 50 4 G 6 59° 54% - - 42° 68.6° 54.9° - - 1016.0
4/25 7:50pm 52 4 G 6 59° 52% - - 42° 68.6° 54.9° - - 1015.0
4/25 7:40pm 53 4 G 6 61° 50% - - 42° 68.6° 54.9° - - 1015.0
4/25 7:30pm 65 0 G 2 62° 47% - - 42° 68.6° 54.9° - - 1015.0
4/25 7:20pm 111 0 G 2 62° 48% - - 42° 68.6° 54.9° - - 1015.0
4/25 7:10pm 231 1 G 3 63° 47% - - 42° 68.6° 54.9° - - 1015.0
4/25 7:00pm 231 2 G 4 63° 45% - - 42° 68.6° 54.9° - - 1015.0
4/25 6:50pm 236 2 G 4 64° 44% - - 41° 68.6° 54.9° - - 1015.0
4/25 6:40pm 219 3 G 6 64° 43% - - 42° 68.6° 54.9° - - 1015.0
4/25 6:30pm 232 5 G 9 64° 43% - - 41° 68.6° 54.9° - - 1014.0
4/25 6:20pm 228 5 G 8 66° 40% - - 41° 68.6° 54.9° - - 1014.0
4/25 6:10pm 223 4 G 8 67° 38% - - 40° 68.6° 54.9° - - 1014.0
4/25 6:00pm 207 3 G 7 68° 36% - - 40° 68.6° 54.9° - - 1014.0
4/25 5:50pm 227 3 G 6 67° 37% - - 40° 68.6° 54.9° - - 1014.0
4/25 5:40pm 219 3 G 6 67° 37% - - 40° 68.6° 54.9° - - 1014.0
4/25 5:30pm 225 4 G 10 67° 37% - - 40° 68.6° 54.9° - - 1014.0
4/25 5:20pm 210 4 G 9 66° 37% - - 40° 68.6° 54.9° - - 1014.0
4/25 5:10pm 218 4 G 8 66° 37% - - 40° 68.6° 54.9° - - 1014.0
4/25 5:00pm 210 4 G 8 66° 38% - - 40° 68.6° 54.9° - - 1014.0
4/25 4:50pm 223 6 G 11 66° 38% - - 40° 68.6° 54.9° - - 1015.0
4/25 4:40pm 227 7 G 12 66° 38% - - 40° 68.6° 54.9° - - 1015.0
4/25 4:30pm 227 6 G 11 67° 38% - - 41° 68.6° 54.9° - - 1014.0
4/25 4:20pm 225 6 G 13 67° 39% - - 42° 68.6° 54.9° - - 1014.0
4/25 4:10pm 210 5 G 11 68° 39% - - 43° 68.6° 54.9° - - 1014.0
4/25 4:00pm 214 5 G 10 68° 42% - - 44° 68.6° 54.9° - - 1014.0
4/25 3:50pm 215 6 G 10 67° 44% - - 44° 67.7° 54.9° - - 1015.0
4/25 3:40pm 223 6 G 11 67° 45% - - 45° 67.7° 54.9° - - 1015.0
4/25 3:30pm 220 6 G 11 67° 46% - - 46° 67.6° 54.9° - - 1015.0
4/25 3:20pm 218 5 G 11 66° 50% - - 47° 67.4° 54.9° - - 1015.0
4/25 3:10pm 224 5 G 10 66° 51% - - 47° 67.4° 54.9° - - 1015.0
4/25 3:00pm 228 5 G 13 65° 52% - - 47° 67.4° 54.9° - - 1015.0
4/25 2:50pm 236 6 G 14 65° 53% - - 48° 67.4° 54.9° - - 1015.0
4/25 2:40pm 211 5 G 10 66° 51% - - 48° 67.4° 54.9° - - 1015.0
4/25 2:30pm 230 5 G 11 66° 51% - - 47° 67.4° 54.9° - - 1015.0
4/25 2:20pm 205 4 G 9 65° 53% - - 47° 67.4° 54.9° - - 1015.0
4/25 2:10pm 226 6 G 12 64° 54% - - 47° 67.4° 54.9° - - 1015.0
4/25 2:00pm 234 6 G 12 64° 55% - - 48° 67.4° 54.9° - - 1016.0
4/25 1:50pm 218 6 G 11 65° 54% - - 48° 67.4° 54.9° - - 1016.0
4/25 1:40pm 223 6 G 12 66° 53% - - 48° 67.4° 54.9° - - 1016.0
4/25 1:30pm 182 5 G 13 67° 53% - - 49° 67.4° 54.9° - - 1016.0
4/25 1:20pm 174 4 G 9 66° 53% - - 48° 66.5° 54.9° - - 1016.0
4/25 1:10pm 175 5 G 9 65° 54% - - 48° 66.5° 54.9° - - 1016.0
4/25 1:00pm 207 6 G 14 65° 55% - - 48° 66.5° 54.9° - - 1016.0
4/25 12:50pm 230 7 G 13 64° 55% - - 48° 66.5° 54.9° - - 1016.0
4/25 12:40pm 197 6 G 15 65° 54% - - 48° 66.5° 54.9° - - 1016.0
4/25 12:30pm 229 7 G 14 63° 57% - - 48° 66.5° 54.9° - - 1016.0
4/25 12:20pm 245 6 G 12 63° 57% - - 48° 66.5° 54.9° - - 1016.0
4/25 12:10pm 232 6 G 12 63° 58% - - 48° 66.5° 54.9° - - 1016.0
4/25 12:00pm 223 6 G 11 64° 57% - - 48° 66.5° 54.9° - - 1016.0
4/25 11:50am 213 5 G 10 64° 55% - - 48° 66.5° 54.9° - - 1016.0
4/25 11:40am 192 5 G 10 66° 53% - - 48° 66.5° 54.9° - - 1016.0
4/25 11:30am 173 6 G 11 64° 56% - - 48° 65.5° 54.9° - - 1016.0
4/25 11:20am 165 7 G 14 64° 57% - - 49° 65.5° 54.9° - - 1016.0
4/25 11:10am 165 6 G 12 65° 55% - - 48° 65.5° 54.9° - - 1016.0
4/25 11:00am 188 5 G 12 64° 56% - - 49° 65° 54.9° - - 1016.0
4/25 10:50am 190 6 G 13 64° 57% - - 49° 64.9° 54.9° - - 1016.0
4/25 10:40am 167 5 G 10 64° 58% - - 49° 64.7° 54.9° - - 1016.0
4/25 10:30am 158 5 G 11 63° 60% - - 49° 63.9° 54.9° - - 1016.0
4/25 10:20am 155 6 G 13 62° 62% - - 49° 63° 54.9° - - 1016.0
4/25 10:10am 124 5 G 9 62° 62% - - 49° 62.9° 54.9° - - 1016.0
4/25 10:00am 186 5 G 10 63° 63% - - 50° 62.8° 54.9° - - 1016.0
4/25 9:50am 173 5 G 10 61° 68% - - 51° 62.5° 54.9° - - 1016.0
4/25 9:40am 141 6 G 13 60° 71% - - 50° 62.3° 54.9° - - 1016.0
4/25 9:30am 185 6 G 10 62° 64% - - 49° 62.3° 54.9° - - 1016.0
4/25 9:20am 157 4 G 10 60° 64% - - 48° 61.6° 54.9° - - 1016.0
4/25 9:10am 181 4 G 8 60° 67% - - 49° 60.4° 54.9° - - 1016.0
4/25 9:00am 170 4 G 7 60° 68% - - 50° 60.4° 54.9° - - 1016.0
4/25 8:50am 160 4 G 8 59° 73% - - 50° 60° 54.9° - - 1016.0
4/25 8:40am 165 6 G 11 58° 76% - - 50° 59.8° 54.9° - - 1016.0
4/25 8:30am 173 5 G 10 59° 73% - - 50° 59.8° 54.9° - - 1016.0
4/25 8:20am 167 3 G 12 59° 71% - - 50° 59.8° 54.9° - - 1016.0
4/25 8:10am 133 2 G 7 58° 76% - - 50° 59° 54.9° - - 1016.0
4/25 8:00am 152 4 G 10 57° 77% - - 50° 57.8° 54.9° - - 1016.0
4/25 7:50am 170 3 G 7 57° 77% - - 50° 57.8° 54.9° - - 1015.0
4/25 7:40am 185 3 G 6 57° 79% - - 50° 57.4° 54.9° - - 1015.0
4/25 7:30am 159 2 G 7 56° 80% - - 50° 56.7° 54.9° - - 1015.0
4/25 7:20am 171 2 G 5 56° 80% - - 50° 56.7° 54.9° - - 1015.0
4/25 7:10am 165 3 G 5 56° 81% - - 50° 56.7° 54.9° - - 1015.0
4/25 7:00am 125 2 G 6 56° 81% - - 50° 56.7° 54.9° - - 1015.0
4/25 6:50am 143 3 G 7 56° 82% - - 50° 56.7° 54.9° - - 1015.0
4/25 6:40am 137 2 G 4 55° 82% - - 50° 56.7° 54.9° - - 1015.0
4/25 6:30am 134 1 G 4 55° 82% - - 50° 56.7° 54.9° - - 1015.0
4/25 6:20am 123 2 G 6 55° 83% - - 50° 56.7° 54.9° - - 1014.0
4/25 6:10am 136 2 G 6 55° 83% - - 50° 56.7° 54.9° - - 1014.0
4/25 6:00am 137 3 G 7 55° 83% - - 50° 56.7° 55° - - 1014.0
4/25 5:50am 149 4 G 8 55° 83% - - 50° 56.7° 55° - - 1014.0
4/25 5:40am 169 3 G 8 55° 83% - - 50° 56.7° 55° - - 1014.0
4/25 5:30am 156 3 G 8 55° 83% - - 50° 56.7° 55° - - 1014.0
4/25 5:20am 177 4 G 7 55° 82% - - 50° 56.7° 55° - - 1014.0
4/25 5:10am 181 2 G 4 56° 81% - - 50° 56.7° 55° - - 1014.0
4/25 5:00am 168 2 G 4 56° 81% - - 50° 56.7° 55° - - 1014.0
4/25 4:50am 150 3 G 7 56° 82% - - 50° 56.7° 55° - - 1014.0
4/25 4:40am 133 3 G 6 56° 82% - - 50° 56.7° 55° - - 1014.0
4/25 4:30am 148 3 G 8 55° 83% - - 50° 56.7° 55° - - 1014.0
4/25 4:20am 163 3 G 7 55° 83% - - 50° 56.7° 55° - - 1014.0
4/25 4:10am 179 3 G 8 56° 83% - - 51° 56.7° 55° - - 1014.0
4/25 4:00am 197 2 G 5 56° 82% - - 51° 56.7° 55° - - 1014.0
4/25 3:50am 159 2 G 5 56° 82% - - 51° 56.7° 55° - - 1014.0
4/25 3:40am 195 1 G 3 56° 82% - - 51° 56.7° 55° - - 1014.0
4/25 3:30am 183 3 G 6 56° 82% - - 51° 56.7° 55° - - 1014.0
4/25 3:20am 167 2 G 5 56° 82% - - 50° 56.7° 55° - - 1014.0
4/25 3:10am 169 2 G 3 56° 82% - - 50° 56.7° 55° - - 1014.0
4/25 3:00am 182 3 G 5 56° 81% - - 50° 56.7° 55° - - 1014.0
4/25 2:50am 139 1 G 4 56° 81% - - 50° 56.7° 55° - - 1014.0
4/25 2:40am 37 1 G 2 56° 81% - - 50° 56.7° 55° - - 1015.0
4/25 2:30am 74 1 G 3 56° 81% - - 50° 56.7° 55° - - 1015.0
4/25 2:20am 100 1 G 2 56° 81% - - 50° 56.7° 55° - - 1015.0
4/25 2:10am 154 0 G 2 56° 81% - - 50° 56.7° 55° - - 1015.0
4/25 2:00am 241 1 G 2 56° 81% - - 50° 56.7° 55° - - 1015.0
4/25 1:50am 174 0 G 1 56° 80% - - 50° 56.7° 55° - - 1015.0
4/25 1:40am 200 0 G 1 56° 80% - - 50° 56.7° 55° - - 1015.0
4/25 1:30am 231 1 G 2 56° 80% - - 50° 56.7° 55° - - 1015.0
4/25 1:20am 100 0 G 2 56° 80% - - 49° 56.7° 55° - - 1015.0
4/25 1:10am 20 1 G 3 55° 81% - - 50° 56.7° 55° - - 1015.0
4/25 1:00am 53 1 G 3 55° 80% - - 49° 56.7° 55° - - 1015.0
4/25 12:50am 194 1 G 2 56° 79% - - 50° 56.7° 55.2° - - 1015.0
4/25 12:40am 311 0 G 1 56° 79% - - 50° 56.7° 55.9° - - 1015.0
4/25 12:30am 257 1 G 2 56° 79% - - 50° 56.7° 56° - - 1015.0
4/25 12:20am 225 0 G 2 56° 79% - - 50° 56.7° 56.3° - - 1015.0
4/25 12:10am 267 0 G 1 57° 79% - - 50° 56.7° 56.3° - - 1015.0
4/25 12:00am 153 0 G 2 57° 79% - - 50° 66.5° 51° - - 1015.0
4/24 11:50pm 208 0 G 1 56° 80% - - 50° 66.5° 51° - - 1015.0
4/24 11:40pm 280 1 G 2 56° 80% - - 50° 66.5° 51° - - 1015.0
4/24 11:30pm 229 1 G 2 56° 81% - - 50° 66.5° 51° - - 1015.0
4/24 11:20pm 274 1 G 4 56° 81% - - 50° 66.5° 51° - - 1015.0
4/24 11:10pm 104 2 G 4 56° 82% - - 51° 66.5° 51° - - 1015.0
4/24 11:00pm 158 1 G 2 56° 81% - - 51° 66.5° 51° - - 1016.0
4/24 10:50pm 51 1 G 4 56° 82% - - 51° 66.5° 51° - - 1016.0
4/24 10:40pm 332 1 G 3 56° 82% - - 51° 66.5° 51° - - 1016.0
4/24 10:30pm 319 1 G 2 56° 83% - - 51° 66.5° 51° - - 1016.0
4/24 10:20pm 264 1 G 2 56° 82% - - 51° 66.5° 51° - - 1016.0
4/24 10:10pm 194 1 G 3 56° 83% - - 51° 66.5° 51° - - 1016.0
4/24 10:00pm 183 1 G 4 56° 83% - - 51° 66.5° 51° - - 1015.0
4/24 9:50pm 206 1 G 3 56° 83% - - 51° 66.5° 51° - - 1015.0
4/24 9:40pm 178 2 G 5 57° 82% - - 51° 66.5° 51° - - 1015.0
4/24 9:30pm 177 2 G 4 57° 82% - - 51° 66.5° 51° - - 1015.0
4/24 9:20pm 232 2 G 4 57° 82% - - 51° 66.5° 51° - - 1016.0
4/24 9:10pm 235 2 G 3 57° 82% - - 51° 66.5° 51° - - 1016.0
4/24 9:00pm 243 2 G 4 57° 81% - - 51° 66.5° 51° - - 1015.0
4/24 8:50pm 233 2 G 4 57° 80% - - 51° 66.5° 51° - - 1015.0
4/24 8:40pm 219 2 G 5 58° 79% - - 51° 66.5° 51° - - 1015.0
4/24 8:30pm 198 2 G 5 58° 79% - - 52° 66.5° 51° - - 1015.0
4/24 8:20pm 191 2 G 6 58° 78% - - 52° 66.5° 51° - - 1015.0
4/24 8:10pm 213 1 G 5 59° 77% - - 52° 66.5° 51° - - 1015.0
4/24 8:00pm 210 1 G 4 59° 77% - - 52° 66.5° 51° - - 1015.0
4/24 7:50pm 234 2 G 5 59° 77% - - 52° 66.5° 51° - - 1015.0
4/24 7:40pm 204 2 G 4 59° 76% - - 51° 66.5° 51° - - 1015.0
4/24 7:30pm 227 3 G 6 59° 76% - - 51° 66.5° 51° - - 1015.0
4/24 7:20pm 230 4 G 8 59° 76% - - 52° 66.5° 51° - - 1015.0
4/24 7:10pm 229 4 G 8 59° 76% - - 52° 66.5° 51° - - 1015.0
4/24 7:00pm 228 4 G 7 60° 76% - - 52° 66.5° 51° - - 1015.0
4/24 6:50pm 230 5 G 9 60° 75% - - 52° 66.5° 51° - - 1015.0
4/24 6:40pm 225 5 G 9 60° 74% - - 52° 66.5° 51° - - 1015.0
4/24 6:30pm 230 6 G 10 60° 74% - - 52° 66.5° 51° - - 1015.0
4/24 6:20pm 228 7 G 11 61° 72% - - 52° 66.5° 51° - - 1015.0
4/24 6:10pm 225 5 G 10 62° 70% - - 52° 66.5° 51° - - 1015.0
4/24 6:00pm 224 4 G 8 62° 68% - - 51° 66.5° 51° - - 1015.0